createdAt,value
2018-10-07T00:00:58.629Z,8.50
2018-10-07T00:01:58.781Z,7.20
2018-10-07T00:02:58.933Z,7.50
2018-10-07T00:03:59.085Z,7.50
2018-10-07T00:04:59.235Z,7.20
2018-10-07T00:05:59.384Z,7.80
2018-10-07T00:06:59.533Z,7.20
2018-10-07T00:07:59.688Z,8.60
2018-10-07T00:08:59.838Z,6.50
2018-10-07T00:09:59.988Z,7.90
2018-10-07T00:11:00.139Z,8.20
2018-10-07T00:12:00.289Z,7.10
2018-10-07T00:13:00.442Z,7.40
2018-10-07T00:14:00.592Z,10.60
2018-10-07T00:15:00.742Z,7.50
2018-10-07T00:16:00.893Z,7.40
2018-10-07T00:17:01.044Z,7.80
2018-10-07T00:18:01.195Z,8.00
2018-10-07T00:19:01.346Z,8.00
2018-10-07T00:20:01.494Z,8.00
2018-10-07T00:21:01.644Z,6.20
2018-10-07T00:22:01.797Z,9.40
2018-10-07T00:23:01.948Z,6.10
2018-10-07T00:24:02.099Z,7.90
2018-10-07T00:25:02.247Z,7.40
2018-10-07T00:26:02.399Z,7.80
2018-10-07T00:27:02.549Z,8.20
2018-10-07T00:28:02.703Z,8.30
2018-10-07T00:29:02.855Z,6.70
2018-10-07T00:30:03.005Z,7.90
2018-10-07T00:31:03.154Z,8.80
2018-10-07T00:32:03.304Z,7.40
2018-10-07T00:33:03.455Z,8.40
2018-10-07T00:34:03.609Z,6.60
2018-10-07T00:35:03.754Z,6.70
2018-10-07T00:36:03.904Z,9.00
2018-10-07T00:37:04.056Z,9.20
2018-10-07T00:38:04.203Z,8.50
2018-10-07T00:39:04.354Z,8.70
2018-10-07T00:40:04.503Z,7.60
2018-10-07T00:41:04.654Z,8.30
2018-10-07T00:42:04.803Z,8.40
2018-10-07T00:43:04.955Z,7.30
2018-10-07T00:44:05.105Z,7.10
2018-10-07T00:45:05.258Z,8.50
2018-10-07T00:46:05.404Z,7.10
2018-10-07T00:47:05.557Z,8.40
2018-10-07T00:48:05.703Z,6.30
2018-10-07T00:49:05.854Z,7.20
2018-10-07T00:50:06.008Z,8.70
2018-10-07T00:51:06.152Z,8.00
2018-10-07T00:52:06.302Z,8.70
2018-10-07T00:53:06.457Z,9.80
2018-10-07T00:54:06.608Z,8.80
2018-10-07T00:55:06.756Z,8.10
2018-10-07T00:56:06.920Z,6.90
2018-10-07T00:57:07.056Z,8.00
2018-10-07T00:58:07.207Z,8.20
2018-10-07T00:59:07.356Z,8.80
2018-10-07T01:00:07.507Z,7.70
2018-10-07T01:01:07.660Z,8.40
2018-10-07T01:02:07.813Z,8.10
2018-10-07T01:03:07.961Z,7.00
2018-10-07T01:04:08.110Z,8.30
2018-10-07T01:05:08.259Z,10.00
2018-10-07T01:06:08.411Z,9.40
2018-10-07T01:07:08.563Z,10.10
2018-10-07T01:08:08.711Z,8.20
2018-10-07T01:09:08.889Z,7.80
2018-10-07T01:10:09.008Z,6.60
2018-10-07T01:11:09.157Z,8.80
2018-10-07T01:12:09.308Z,8.00
2018-10-07T01:13:09.460Z,6.60
2018-10-07T01:14:09.607Z,7.20
2018-10-07T01:15:09.757Z,6.20
2018-10-07T01:16:09.906Z,8.80
2018-10-07T01:17:10.057Z,9.10
2018-10-07T01:18:10.205Z,8.60
2018-10-07T01:19:10.355Z,7.80
2018-10-07T01:20:10.507Z,7.00
2018-10-07T01:21:10.653Z,8.30
2018-10-07T01:22:10.805Z,8.30
2018-10-07T01:23:10.955Z,7.60
2018-10-07T01:24:11.106Z,7.90
2018-10-07T01:25:11.255Z,7.40
2018-10-07T01:26:11.410Z,8.40
2018-10-07T01:27:11.559Z,7.50
2018-10-07T01:28:11.736Z,7.90
2018-10-07T01:29:11.885Z,7.30
2018-10-07T01:30:12.035Z,8.80
2018-10-07T01:31:12.185Z,7.80
2018-10-07T01:32:12.336Z,8.30
2018-10-07T01:33:12.484Z,7.80
2018-10-07T01:34:12.636Z,6.90
2018-10-07T01:35:12.786Z,7.70
2018-10-07T01:36:12.935Z,7.00
2018-10-07T01:37:13.085Z,6.60
2018-10-07T01:38:13.234Z,8.20
2018-10-07T01:39:13.384Z,7.70
2018-10-07T01:40:13.535Z,8.00
2018-10-07T01:41:13.689Z,8.10
2018-10-07T01:42:13.839Z,6.80
2018-10-07T01:43:13.991Z,6.80
2018-10-07T01:44:14.138Z,7.10
2018-10-07T01:45:14.286Z,9.00
2018-10-07T01:46:14.439Z,8.30
2018-10-07T01:47:14.587Z,7.10
2018-10-07T01:48:14.736Z,8.80
2018-10-07T01:49:14.887Z,8.30
2018-10-07T01:50:15.035Z,7.50
2018-10-07T01:51:15.185Z,7.10
2018-10-07T01:52:15.334Z,7.50
2018-10-07T01:53:15.484Z,6.90
2018-10-07T01:54:15.638Z,9.10
2018-10-07T01:55:15.784Z,6.40
2018-10-07T01:56:15.937Z,8.00
2018-10-07T01:57:16.084Z,7.70
2018-10-07T01:58:16.231Z,7.00
2018-10-07T01:59:16.389Z,8.00
2018-10-07T02:00:16.523Z,7.80
2018-10-07T02:01:16.685Z,8.20
2018-10-07T02:02:16.835Z,9.60
2018-10-07T02:03:16.986Z,7.70
2018-10-07T02:04:17.136Z,8.40
2018-10-07T02:05:17.286Z,8.10
2018-10-07T02:06:17.436Z,8.90
2018-10-07T02:07:17.585Z,8.10
2018-10-07T02:08:17.733Z,6.20
2018-10-07T02:09:17.883Z,9.40
2018-10-07T02:10:18.035Z,7.70
2018-10-07T02:11:18.186Z,8.20
2018-10-07T02:12:18.333Z,8.00
2018-10-07T02:13:18.485Z,7.90
2018-10-07T02:14:18.636Z,8.00
2018-10-07T02:15:18.783Z,7.60
2018-10-07T02:16:18.938Z,8.00
2018-10-07T02:17:19.092Z,8.60
2018-10-07T02:18:19.237Z,7.00
2018-10-07T02:19:19.387Z,8.00
2018-10-07T02:20:19.534Z,5.90
2018-10-07T02:21:19.688Z,8.00
2018-10-07T02:22:19.835Z,8.10
2018-10-07T02:23:19.982Z,9.20
2018-10-07T02:24:20.133Z,9.10
2018-10-07T02:25:20.286Z,7.20
2018-10-07T02:26:20.434Z,10.10
2018-10-07T02:27:20.584Z,6.60
2018-10-07T02:28:20.733Z,7.90
2018-10-07T02:29:20.884Z,9.30
2018-10-07T02:30:21.035Z,7.90
2018-10-07T02:31:21.183Z,9.40
2018-10-07T02:32:21.338Z,8.60
2018-10-07T02:33:21.485Z,8.20
2018-10-07T02:34:21.633Z,8.50
2018-10-07T02:35:21.781Z,8.00
2018-10-07T02:36:21.931Z,6.80
2018-10-07T02:37:22.081Z,7.30
2018-10-07T02:38:22.233Z,8.50
2018-10-07T02:39:22.379Z,8.80
2018-10-07T02:40:22.531Z,7.90
2018-10-07T02:41:22.676Z,7.50
2018-10-07T02:42:22.825Z,9.60
2018-10-07T02:43:22.997Z,8.90
2018-10-07T02:44:23.124Z,8.30
2018-10-07T02:45:23.273Z,8.10
2018-10-07T02:46:23.423Z,8.40
2018-10-07T02:47:23.572Z,9.90
2018-10-07T02:48:23.721Z,8.70
2018-10-07T02:49:23.868Z,8.20
2018-10-07T02:50:24.016Z,7.90
2018-10-07T02:51:24.181Z,7.40
2018-10-07T02:52:24.472Z,7.50
2018-10-07T02:53:24.605Z,6.90
2018-10-07T02:54:24.696Z,8.70
2018-10-07T02:55:24.848Z,7.70
2018-10-07T02:56:24.996Z,8.90
2018-10-07T02:57:25.145Z,8.20
2018-10-07T02:58:25.295Z,9.20
2018-10-07T02:59:25.469Z,8.90
2018-10-07T03:00:25.595Z,7.70
2018-10-07T03:01:25.751Z,11.90
2018-10-07T03:02:25.900Z,9.50
2018-10-07T03:03:26.046Z,8.80
2018-10-07T03:04:26.209Z,7.70
2018-10-07T03:05:26.345Z,8.50
2018-10-07T03:06:26.495Z,9.20
2018-10-07T03:07:26.641Z,8.10
2018-10-07T03:08:26.792Z,8.10
2018-10-07T03:09:26.942Z,8.70
2018-10-07T03:10:27.089Z,9.10
2018-10-07T03:11:27.238Z,9.80
2018-10-07T03:12:27.388Z,9.30
2018-10-07T03:13:27.538Z,8.80
2018-10-07T03:14:27.684Z,12.80
2018-10-07T03:15:27.838Z,11.30
2018-10-07T03:16:27.984Z,10.20
2018-10-07T03:17:28.133Z,10.60
2018-10-07T03:18:28.283Z,9.10
2018-10-07T03:19:28.435Z,11.40
2018-10-07T03:20:28.585Z,10.30
2018-10-07T03:21:28.733Z,8.20
2018-10-07T03:22:28.881Z,8.10
2018-10-07T03:23:29.032Z,9.50
2018-10-07T03:24:29.184Z,7.40
2018-10-07T03:25:29.335Z,7.50
2018-10-07T03:26:29.472Z,10.00
2018-10-07T03:27:29.622Z,7.90
2018-10-07T03:28:29.772Z,7.80
2018-10-07T03:29:29.997Z,8.70
2018-10-07T03:30:30.069Z,7.90
2018-10-07T03:31:30.216Z,7.90
2018-10-07T03:32:30.364Z,7.90
2018-10-07T03:33:30.512Z,7.60
2018-10-07T03:34:30.663Z,8.40
2018-10-07T03:35:30.813Z,7.00
2018-10-07T03:36:30.964Z,8.00
2018-10-07T03:37:31.119Z,9.60
2018-10-07T03:38:31.258Z,8.20
2018-10-07T03:39:31.406Z,8.50
2018-10-07T03:40:31.556Z,8.70
2018-10-07T03:41:31.706Z,9.30
2018-10-07T03:42:31.854Z,8.10
2018-10-07T03:43:32.004Z,11.30
2018-10-07T03:44:32.154Z,9.00
2018-10-07T03:45:32.302Z,9.50
2018-10-07T03:46:32.453Z,8.80
2018-10-07T03:47:32.594Z,10.80
2018-10-07T03:48:32.741Z,10.00
2018-10-07T03:49:32.888Z,9.30
2018-10-07T03:50:33.038Z,12.10
2018-10-07T03:51:33.186Z,10.50
2018-10-07T03:52:33.334Z,8.50
2018-10-07T03:53:33.487Z,9.70
2018-10-07T03:54:33.634Z,10.70
2018-10-07T03:55:33.782Z,10.90
2018-10-07T03:56:33.931Z,10.10
2018-10-07T03:57:34.079Z,10.40
2018-10-07T03:58:34.228Z,9.60
2018-10-07T03:59:34.380Z,8.70
2018-10-07T04:00:34.527Z,8.70
2018-10-07T04:01:34.676Z,10.30
2018-10-07T04:02:34.828Z,11.80
2018-10-07T04:03:34.978Z,9.40
2018-10-07T04:04:35.122Z,10.00
2018-10-07T04:05:35.274Z,9.40
2018-10-07T04:06:35.419Z,9.70
2018-10-07T04:07:35.569Z,9.10
2018-10-07T04:08:35.718Z,8.10
2018-10-07T04:09:35.864Z,7.10
2018-10-07T04:10:36.015Z,8.20
2018-10-07T04:11:36.170Z,9.40
2018-10-07T04:12:36.313Z,11.90
2018-10-07T04:13:36.462Z,8.50
2018-10-07T04:14:36.611Z,8.00
2018-10-07T04:15:36.762Z,7.40
2018-10-07T04:16:36.911Z,7.50
2018-10-07T04:17:37.063Z,9.20
2018-10-07T04:18:37.213Z,8.30
2018-10-07T04:19:37.364Z,9.40
2018-10-07T04:20:37.507Z,8.30
2018-10-07T04:21:37.657Z,8.60
2018-10-07T04:22:37.804Z,10.40
2018-10-07T04:23:37.958Z,8.40
2018-10-07T04:24:38.100Z,8.20
2018-10-07T04:25:38.251Z,9.10
2018-10-07T04:26:38.401Z,7.90
2018-10-07T04:27:38.547Z,8.10
2018-10-07T04:28:38.697Z,6.40
2018-10-07T04:29:38.844Z,7.90
2018-10-07T04:30:38.996Z,8.40
2018-10-07T04:31:39.147Z,7.70
2018-10-07T04:32:39.294Z,7.70
2018-10-07T04:33:39.442Z,7.10
2018-10-07T04:34:39.599Z,8.20
2018-10-07T04:35:39.743Z,7.50
2018-10-07T04:36:39.888Z,8.10
2018-10-07T04:37:40.078Z,7.20
2018-10-07T04:38:40.186Z,8.70
2018-10-07T04:39:40.372Z,7.80
2018-10-07T04:40:40.485Z,9.40
2018-10-07T04:41:40.633Z,9.10
2018-10-07T04:42:40.781Z,9.70
2018-10-07T04:43:40.928Z,7.20
2018-10-07T04:44:41.081Z,7.70
2018-10-07T04:45:41.229Z,7.70
2018-10-07T04:46:41.381Z,7.20
2018-10-07T04:47:41.527Z,8.90
2018-10-07T04:48:41.676Z,10.30
2018-10-07T04:49:41.816Z,8.80
2018-10-07T04:50:41.962Z,8.20
2018-10-07T04:51:42.108Z,8.20
2018-10-07T04:52:42.267Z,7.30
2018-10-07T04:53:42.407Z,7.40
2018-10-07T04:54:42.554Z,8.00
2018-10-07T04:55:42.703Z,10.40
2018-10-07T04:56:42.851Z,10.40
2018-10-07T04:57:43.002Z,10.20
2018-10-07T04:58:43.149Z,9.90
2018-10-07T04:59:43.298Z,8.60
2018-10-07T05:00:43.448Z,9.70
2018-10-07T05:01:43.597Z,9.70
2018-10-07T05:02:43.745Z,9.10
2018-10-07T05:03:43.897Z,9.80
2018-10-07T05:04:44.044Z,10.70
2018-10-07T05:05:44.193Z,8.70
2018-10-07T05:06:44.350Z,10.20
2018-10-07T05:07:44.499Z,9.30
2018-10-07T05:08:44.648Z,10.70
2018-10-07T05:09:44.800Z,9.50
2018-10-07T05:10:44.948Z,7.90
2018-10-07T05:11:45.096Z,9.10
2018-10-07T05:12:45.319Z,7.80
2018-10-07T05:13:45.395Z,8.60
2018-10-07T05:14:45.543Z,10.10
2018-10-07T05:15:45.693Z,7.80
2018-10-07T05:16:45.841Z,11.30
2018-10-07T05:17:45.991Z,9.70
2018-10-07T05:18:46.137Z,8.40
2018-10-07T05:19:46.287Z,9.50
2018-10-07T05:20:46.446Z,8.40
2018-10-07T05:21:46.585Z,8.70
2018-10-07T05:22:46.733Z,9.80
2018-10-07T05:23:46.883Z,8.80
2018-10-07T05:24:47.032Z,8.70
2018-10-07T05:25:47.180Z,9.10
2018-10-07T05:26:47.328Z,10.20
2018-10-07T05:27:47.478Z,10.10
2018-10-07T05:28:47.629Z,9.30
2018-10-07T05:29:47.777Z,8.50
2018-10-07T05:30:47.929Z,8.40
2018-10-07T05:31:48.075Z,10.10
2018-10-07T05:32:48.225Z,11.50
2018-10-07T05:33:48.374Z,10.10
2018-10-07T05:34:48.525Z,9.30
2018-10-07T05:35:48.674Z,11.00
2018-10-07T05:36:48.823Z,9.80
2018-10-07T05:37:48.974Z,8.90
2018-10-07T05:38:49.121Z,12.30
2018-10-07T05:39:49.271Z,10.90
2018-10-07T05:40:49.422Z,8.90
2018-10-07T05:41:49.569Z,10.90
2018-10-07T05:42:49.717Z,10.90
2018-10-07T05:43:49.868Z,10.30
2018-10-07T05:44:50.117Z,10.10
2018-10-07T05:45:50.165Z,9.10
2018-10-07T05:46:50.314Z,10.30
2018-10-07T05:47:50.464Z,10.70
2018-10-07T05:48:50.616Z,10.20
2018-10-07T05:49:50.764Z,9.20
2018-10-07T05:50:50.912Z,9.50
2018-10-07T05:51:51.068Z,10.00
2018-10-07T05:52:51.209Z,11.60
2018-10-07T05:53:51.360Z,9.20
2018-10-07T05:54:51.510Z,12.60
2018-10-07T05:55:51.717Z,11.20
2018-10-07T05:56:51.809Z,8.70
2018-10-07T05:57:51.959Z,9.80
2018-10-07T05:58:52.113Z,9.50
2018-10-07T05:59:52.263Z,8.40
2018-10-07T06:00:52.412Z,9.70
2018-10-07T06:01:52.626Z,8.60
2018-10-07T06:02:52.714Z,9.20
2018-10-07T06:03:52.861Z,7.20
2018-10-07T06:04:53.012Z,8.30
2018-10-07T06:05:53.161Z,10.10
2018-10-07T06:06:53.313Z,8.20
2018-10-07T06:07:53.463Z,9.00
2018-10-07T06:08:53.607Z,8.90
2018-10-07T06:09:53.760Z,9.50
2018-10-07T06:10:53.904Z,11.20
2018-10-07T06:11:54.052Z,12.80
2018-10-07T06:12:54.200Z,10.10
2018-10-07T06:13:54.354Z,14.30
2018-10-07T06:14:54.595Z,12.70
2018-10-07T06:15:54.650Z,13.10
2018-10-07T06:16:54.890Z,14.90
2018-10-07T06:17:55.137Z,16.30
2018-10-07T06:18:55.133Z,9.20
2018-10-07T06:19:55.396Z,8.50
2018-10-07T06:20:55.336Z,8.60
2018-10-07T06:21:55.503Z,8.40
2018-10-07T06:22:55.727Z,7.90
2018-10-07T06:23:55.748Z,7.60
2018-10-07T06:24:55.896Z,7.40
2018-10-07T06:25:56.046Z,7.60
2018-10-07T06:26:56.196Z,7.20
2018-10-07T06:27:56.345Z,7.30
2018-10-07T06:28:56.506Z,7.80
2018-10-07T06:29:56.737Z,8.20
2018-10-07T06:30:56.802Z,7.60
2018-10-07T06:31:56.954Z,7.90
2018-10-07T06:32:57.107Z,7.20
2018-10-07T06:33:57.256Z,8.10
2018-10-07T06:34:57.406Z,8.20
2018-10-07T06:35:57.552Z,8.20
2018-10-07T06:36:57.699Z,8.50
2018-10-07T06:37:57.849Z,8.30
2018-10-07T06:38:58.001Z,7.80
2018-10-07T06:39:58.222Z,10.30
2018-10-07T06:40:58.305Z,8.00
2018-10-07T06:41:58.450Z,8.60
2018-10-07T06:42:58.600Z,9.20
2018-10-07T06:43:58.749Z,7.70
2018-10-07T06:44:58.900Z,8.00
2018-10-07T06:45:59.111Z,8.60
2018-10-07T06:46:59.202Z,8.20
2018-10-07T06:47:59.353Z,7.80
2018-10-07T06:48:59.506Z,7.70
2018-10-07T06:49:59.654Z,8.00
2018-10-07T06:50:59.801Z,7.70
2018-10-07T06:51:59.949Z,7.40
2018-10-07T06:53:00.103Z,7.70
2018-10-07T06:54:00.253Z,10.40
2018-10-07T06:55:00.413Z,7.20
2018-10-07T06:56:00.563Z,8.20
2018-10-07T06:57:00.712Z,7.70
2018-10-07T06:58:00.862Z,8.80
2018-10-07T06:59:01.015Z,9.40
2018-10-07T07:00:01.192Z,7.50
2018-10-07T07:01:01.315Z,8.40
2018-10-07T07:02:01.468Z,7.50
2018-10-07T07:03:01.626Z,9.10
2018-10-07T07:04:01.924Z,7.10
2018-10-07T07:05:01.979Z,8.00
2018-10-07T07:06:02.129Z,8.10
2018-10-07T07:07:02.277Z,8.30
2018-10-07T07:08:02.443Z,7.70
2018-10-07T07:09:02.607Z,8.90
2018-10-07T07:10:02.757Z,8.70
2018-10-07T07:11:02.907Z,7.60
2018-10-07T07:12:03.056Z,8.00
2018-10-07T07:13:03.292Z,8.40
2018-10-07T07:14:03.360Z,8.50
2018-10-07T07:15:03.510Z,7.80
2018-10-07T07:16:03.662Z,9.90
2018-10-07T07:17:03.813Z,8.50
2018-10-07T07:18:03.963Z,9.00
2018-10-07T07:19:04.111Z,9.80
2018-10-07T07:20:04.297Z,7.70
2018-10-07T07:21:04.414Z,7.70
2018-10-07T07:22:04.565Z,7.40
2018-10-07T07:23:04.714Z,8.20
2018-10-07T07:24:04.865Z,8.70
2018-10-07T07:25:05.016Z,10.20
2018-10-07T07:26:05.212Z,8.50
2018-10-07T07:27:05.314Z,9.30
2018-10-07T07:28:05.463Z,8.70
2018-10-07T07:29:05.613Z,8.80
2018-10-07T07:30:05.765Z,9.20
2018-10-07T07:31:05.917Z,8.50
2018-10-07T07:32:06.068Z,8.60
2018-10-07T07:33:06.219Z,8.40
2018-10-07T07:34:06.369Z,12.60
2018-10-07T07:35:06.521Z,11.90
2018-10-07T07:36:06.672Z,10.10
2018-10-07T07:37:06.822Z,10.30
2018-10-07T07:38:06.973Z,9.60
2018-10-07T07:39:07.125Z,11.10
2018-10-07T07:40:07.275Z,10.30
2018-10-07T07:41:07.425Z,11.30
2018-10-07T07:42:07.593Z,9.30
2018-10-07T07:43:07.728Z,10.10
2018-10-07T07:44:07.879Z,12.40
2018-10-07T07:45:08.033Z,11.30
2018-10-07T07:46:08.197Z,12.90
2018-10-07T07:47:08.345Z,13.10
2018-10-07T07:48:08.497Z,11.40
2018-10-07T07:49:08.712Z,11.00
2018-10-07T07:50:08.798Z,10.30
2018-10-07T07:51:08.951Z,12.70
2018-10-07T07:52:09.101Z,9.30
2018-10-07T07:53:09.252Z,11.00
2018-10-07T07:54:09.410Z,10.30
2018-10-07T07:55:09.558Z,10.60
2018-10-07T07:56:09.707Z,10.00
2018-10-07T07:57:09.865Z,11.00
2018-10-07T07:58:10.015Z,9.80
2018-10-07T07:59:10.156Z,11.60
2018-10-07T08:00:10.305Z,13.40
2018-10-07T08:01:10.482Z,11.00
2018-10-07T08:02:10.601Z,11.80
2018-10-07T08:03:10.752Z,11.00
2018-10-07T08:04:10.905Z,10.90
2018-10-07T08:05:11.056Z,10.80
2018-10-07T08:06:11.208Z,13.80
2018-10-07T08:07:11.359Z,12.30
2018-10-07T08:08:11.512Z,10.90
2018-10-07T08:09:11.664Z,11.20
2018-10-07T08:10:11.840Z,120.00
2018-10-07T08:11:11.961Z,29.90
2018-10-07T08:12:12.113Z,11.10
2018-10-07T08:13:12.265Z,11.30
2018-10-07T08:14:12.421Z,10.90
2018-10-07T08:15:12.570Z,10.70
2018-10-07T08:16:12.722Z,12.90
2018-10-07T08:17:12.919Z,12.00
2018-10-07T08:18:13.026Z,10.00
2018-10-07T08:19:13.183Z,11.80
2018-10-07T08:20:13.328Z,12.10
2018-10-07T08:21:13.503Z,10.80
2018-10-07T08:22:13.637Z,11.00
2018-10-07T08:23:13.798Z,10.50
2018-10-07T08:24:13.938Z,11.20
2018-10-07T08:25:14.093Z,11.10
2018-10-07T08:26:14.244Z,12.80
2018-10-07T08:27:14.396Z,12.30
2018-10-07T08:28:14.549Z,12.80
2018-10-07T08:29:14.699Z,12.50
2018-10-07T08:30:14.853Z,10.70
2018-10-07T08:31:15.003Z,10.50
2018-10-07T08:32:15.169Z,12.80
2018-10-07T08:33:15.300Z,10.60
2018-10-07T08:34:15.449Z,12.30
2018-10-07T08:35:15.652Z,11.50
2018-10-07T08:36:15.753Z,11.90
2018-10-07T08:37:15.903Z,12.10
2018-10-07T08:38:16.061Z,10.70
2018-10-07T08:39:16.207Z,11.60
2018-10-07T08:40:16.356Z,12.40
2018-10-07T08:41:16.509Z,12.70
2018-10-07T08:42:16.661Z,10.70
2018-10-07T08:43:16.813Z,12.20
2018-10-07T08:44:16.967Z,14.40
2018-10-07T08:45:17.119Z,13.30
2018-10-07T08:46:17.272Z,11.00
2018-10-07T08:47:17.423Z,17.10
2018-10-07T08:48:17.573Z,15.00
2018-10-07T08:49:17.726Z,15.00
2018-10-07T08:50:17.881Z,13.30
2018-10-07T08:51:18.034Z,14.60
2018-10-07T08:52:18.187Z,13.50
2018-10-07T08:53:18.339Z,15.00
2018-10-07T08:54:18.493Z,20.00
2018-10-07T08:55:18.646Z,16.80
2018-10-07T08:56:18.805Z,36.30
2018-10-07T08:57:18.954Z,30.60
2018-10-07T08:58:19.104Z,34.10
2018-10-07T08:59:19.255Z,30.10
2018-10-07T09:00:19.405Z,20.90
2018-10-07T09:01:19.556Z,29.80
2018-10-07T09:02:19.710Z,28.90
2018-10-07T09:03:19.863Z,31.00
2018-10-07T09:04:20.016Z,46.90
2018-10-07T09:05:20.170Z,47.10
2018-10-07T09:06:20.309Z,44.90
2018-10-07T09:07:20.463Z,47.70
2018-10-07T09:08:20.615Z,50.20
2018-10-07T09:09:20.767Z,51.40
2018-10-07T09:10:20.921Z,51.20
2018-10-07T09:11:21.073Z,47.90
2018-10-07T09:12:21.226Z,45.50
2018-10-07T09:13:21.375Z,44.70
2018-10-07T09:14:21.527Z,43.10
2018-10-07T09:15:21.678Z,45.20
2018-10-07T09:16:21.832Z,40.30
2018-10-07T09:17:21.986Z,38.10
2018-10-07T09:18:22.138Z,42.10
2018-10-07T09:19:22.290Z,40.60
2018-10-07T09:20:22.441Z,36.00
2018-10-07T09:21:22.590Z,33.60
2018-10-07T09:22:22.741Z,33.60
2018-10-07T09:23:22.892Z,31.20
2018-10-07T09:24:23.044Z,27.90
2018-10-07T09:25:23.198Z,32.90
2018-10-07T09:26:23.349Z,31.30
2018-10-07T09:27:23.687Z,30.20
2018-10-07T09:28:23.650Z,24.50
2018-10-07T09:29:23.802Z,26.10
2018-10-07T09:30:23.953Z,23.80
2018-10-07T09:31:24.108Z,24.90
2018-10-07T09:32:24.324Z,23.50
2018-10-07T09:33:24.406Z,23.70
2018-10-07T09:34:24.558Z,19.80
2018-10-07T09:35:24.708Z,23.70
2018-10-07T09:36:24.861Z,21.60
2018-10-07T09:37:25.015Z,21.30
2018-10-07T09:38:25.164Z,23.50
2018-10-07T09:39:25.359Z,21.60
2018-10-07T09:40:25.466Z,24.00
2018-10-07T09:41:25.626Z,20.90
2018-10-07T09:42:25.781Z,21.50
2018-10-07T09:43:25.929Z,20.00
2018-10-07T09:44:26.076Z,23.40
2018-10-07T09:45:26.227Z,21.00
2018-10-07T09:46:26.378Z,24.90
2018-10-07T09:47:26.531Z,22.50
2018-10-07T09:48:26.682Z,20.30
2018-10-07T09:49:26.834Z,22.10
2018-10-07T09:50:26.987Z,20.60
2018-10-07T09:51:27.136Z,20.90
2018-10-07T09:52:27.329Z,22.80
2018-10-07T09:53:27.440Z,22.30
2018-10-07T09:54:27.601Z,23.20
2018-10-07T09:55:27.754Z,22.80
2018-10-07T09:56:27.901Z,20.10
2018-10-07T09:57:28.056Z,17.80
2018-10-07T09:58:28.221Z,21.40
2018-10-07T09:59:28.351Z,20.30
2018-10-07T10:00:28.505Z,20.90
2018-10-07T10:01:28.657Z,19.50
2018-10-07T10:02:28.807Z,20.10
2018-10-07T10:03:28.956Z,18.50
2018-10-07T10:04:29.173Z,19.90
2018-10-07T10:05:29.260Z,20.50
2018-10-07T10:06:29.415Z,18.90
2018-10-07T10:07:29.562Z,21.40
2018-10-07T10:08:29.712Z,19.20
2018-10-07T10:09:29.865Z,19.00
2018-10-07T10:10:30.013Z,20.70
2018-10-07T10:11:30.167Z,17.00
2018-10-07T10:12:30.317Z,20.00
2018-10-07T10:13:30.470Z,20.70
2018-10-07T10:14:30.641Z,18.50
2018-10-07T10:15:30.783Z,19.10
2018-10-07T10:16:30.930Z,18.90
2018-10-07T10:17:31.099Z,19.70
2018-10-07T10:18:31.237Z,21.20
2018-10-07T10:19:31.409Z,21.10
2018-10-07T10:20:31.543Z,20.80
2018-10-07T10:21:31.692Z,19.10
2018-10-07T10:22:31.849Z,19.20
2018-10-07T10:23:31.987Z,20.60
2018-10-07T10:24:32.142Z,16.10
2018-10-07T10:25:32.298Z,22.20
2018-10-07T10:26:32.443Z,17.60
2018-10-07T10:27:32.592Z,19.60
2018-10-07T10:28:32.741Z,17.90
2018-10-07T10:29:32.891Z,22.40
2018-10-07T10:30:33.043Z,17.20
2018-10-07T10:31:33.195Z,21.30
2018-10-07T10:32:33.350Z,18.50
2018-10-07T10:33:33.497Z,20.50
2018-10-07T10:34:33.654Z,19.10
2018-10-07T10:35:33.805Z,18.00
2018-10-07T10:36:33.962Z,18.40
2018-10-07T10:37:34.114Z,20.60
2018-10-07T10:38:34.262Z,19.30
2018-10-07T10:39:34.533Z,20.20
2018-10-07T10:40:34.572Z,18.70
2018-10-07T10:41:34.731Z,19.10
2018-10-07T10:42:34.882Z,17.20
2018-10-07T10:43:35.035Z,21.00
2018-10-07T10:44:35.184Z,19.40
2018-10-07T10:45:35.339Z,18.70
2018-10-07T10:46:35.486Z,20.20
2018-10-07T10:47:35.636Z,24.80
2018-10-07T10:48:35.789Z,19.00
2018-10-07T10:49:35.940Z,18.60
2018-10-07T10:50:36.101Z,21.50
2018-10-07T10:51:36.248Z,19.20
2018-10-07T10:52:36.398Z,21.30
2018-10-07T10:53:36.554Z,20.90
2018-10-07T10:54:36.714Z,20.90
2018-10-07T10:55:36.885Z,20.40
2018-10-07T10:56:37.050Z,21.10
2018-10-07T10:57:37.200Z,20.00
2018-10-07T10:58:37.350Z,20.70
2018-10-07T10:59:37.503Z,20.50
2018-10-07T11:00:37.663Z,21.40
2018-10-07T11:01:37.814Z,21.90
2018-10-07T11:02:38.013Z,21.70
2018-10-07T11:03:38.167Z,22.00
2018-10-07T11:04:38.514Z,20.90
2018-10-07T11:05:38.487Z,22.60
2018-10-07T11:06:38.642Z,22.10
2018-10-07T11:07:38.792Z,20.30
2018-10-07T11:08:38.948Z,19.70
2018-10-07T11:09:39.099Z,20.90
2018-10-07T11:10:39.248Z,22.50
2018-10-07T11:11:39.399Z,20.30
2018-10-07T11:12:39.552Z,20.80
2018-10-07T11:13:39.747Z,20.40
2018-10-07T11:14:39.890Z,21.20
2018-10-07T11:15:40.091Z,23.00
2018-10-07T11:16:40.215Z,21.60
2018-10-07T11:17:40.356Z,22.70
2018-10-07T11:18:40.513Z,26.60
2018-10-07T11:19:40.670Z,23.30
2018-10-07T11:20:40.833Z,22.40
2018-10-07T11:21:40.984Z,22.10
2018-10-07T11:22:41.140Z,22.50
2018-10-07T11:23:41.374Z,20.80
2018-10-07T11:24:41.398Z,21.80
2018-10-07T11:25:41.564Z,22.30
2018-10-07T11:26:41.715Z,20.40
2018-10-07T11:27:41.864Z,21.20
2018-10-07T11:28:42.016Z,18.90
2018-10-07T11:29:42.167Z,20.70
2018-10-07T11:30:42.324Z,20.30
2018-10-07T11:31:42.476Z,17.60
2018-10-07T11:32:42.627Z,21.10
2018-10-07T11:33:42.777Z,20.00
2018-10-07T11:34:42.954Z,19.60
2018-10-07T11:35:43.087Z,18.60
2018-10-07T11:36:43.247Z,19.10
2018-10-07T11:37:43.407Z,23.00
2018-10-07T11:38:43.553Z,19.00
2018-10-07T11:39:43.705Z,18.80
2018-10-07T11:40:44.039Z,17.10
2018-10-07T11:41:44.039Z,20.10
2018-10-07T11:42:44.194Z,17.90
2018-10-07T11:43:44.348Z,17.90
2018-10-07T11:44:44.501Z,18.00
2018-10-07T11:45:44.710Z,19.00
2018-10-07T11:46:44.750Z,17.40
2018-10-07T11:47:44.900Z,15.60
2018-10-07T11:48:45.062Z,17.80
2018-10-07T11:49:45.212Z,14.50
2018-10-07T11:50:45.365Z,15.30
2018-10-07T11:51:45.545Z,14.00
2018-10-07T11:52:45.714Z,14.80
2018-10-07T11:53:45.858Z,12.40
2018-10-07T11:54:46.017Z,13.50
2018-10-07T11:55:46.170Z,11.70
2018-10-07T11:56:46.337Z,11.70
2018-10-07T11:57:46.491Z,12.20
2018-10-07T11:58:46.642Z,11.50
2018-10-07T11:59:46.796Z,14.30
2018-10-07T12:00:46.966Z,12.90
2018-10-07T12:01:47.166Z,11.60
2018-10-07T12:02:47.403Z,11.90
2018-10-07T12:03:47.495Z,13.20
2018-10-07T12:04:47.654Z,14.00
2018-10-07T12:05:47.809Z,12.80
2018-10-07T12:06:47.979Z,14.50
2018-10-07T12:07:48.131Z,12.70
2018-10-07T12:08:48.288Z,12.50
2018-10-07T12:09:48.459Z,11.20
2018-10-07T12:10:48.609Z,12.30
2018-10-07T12:11:48.761Z,12.00
2018-10-07T12:12:48.949Z,11.90
2018-10-07T12:13:49.129Z,11.90
2018-10-07T12:14:49.299Z,11.20
2018-10-07T12:15:49.456Z,10.20
2018-10-07T12:16:49.609Z,10.50
2018-10-07T12:17:49.766Z,10.80
2018-10-07T12:18:50.001Z,10.30
2018-10-07T12:19:50.038Z,8.90
2018-10-07T12:20:50.190Z,7.90
2018-10-07T12:21:50.404Z,8.80
2018-10-07T12:22:50.513Z,8.50
2018-10-07T12:23:50.555Z,9.30
2018-10-07T12:24:50.743Z,9.30
2018-10-07T12:25:50.965Z,8.80
2018-10-07T12:26:51.000Z,7.30
2018-10-07T12:27:51.194Z,7.50
2018-10-07T12:28:51.417Z,9.20
2018-10-07T12:29:51.513Z,8.30
2018-10-07T12:30:51.668Z,11.40
2018-10-07T12:31:51.814Z,8.20
2018-10-07T12:32:51.970Z,8.00
2018-10-07T12:33:52.132Z,8.70
2018-10-07T12:34:52.274Z,8.10
2018-10-07T12:35:52.423Z,8.50
2018-10-07T12:36:52.575Z,8.90
2018-10-07T12:37:52.726Z,7.90
2018-10-07T12:38:52.881Z,8.00
2018-10-07T12:39:53.044Z,8.20
2018-10-07T12:40:53.207Z,8.50
2018-10-07T12:41:53.386Z,8.70
2018-10-07T12:42:53.543Z,9.90
2018-10-07T12:43:53.704Z,13.30
2018-10-07T12:44:53.871Z,8.80
2018-10-07T12:45:54.002Z,7.90
2018-10-07T12:46:54.154Z,9.10
2018-10-07T12:47:54.303Z,8.50
2018-10-07T12:48:54.457Z,9.10
2018-10-07T12:49:54.611Z,8.60
2018-10-07T12:50:54.761Z,9.30
2018-10-07T12:51:54.913Z,8.20
2018-10-07T12:52:55.083Z,7.60
2018-10-07T12:53:55.248Z,8.10
2018-10-07T12:54:55.389Z,7.60
2018-10-07T12:55:55.542Z,8.00
2018-10-07T12:56:55.693Z,7.90
2018-10-07T12:57:55.848Z,10.10
2018-10-07T12:58:55.999Z,9.00
2018-10-07T12:59:56.150Z,8.60
2018-10-07T13:00:56.303Z,10.90
2018-10-07T13:01:56.459Z,9.40
2018-10-07T13:02:56.612Z,7.70
2018-10-07T13:03:56.768Z,7.80
2018-10-07T13:04:56.931Z,7.00
2018-10-07T13:05:57.086Z,10.40
2018-10-07T13:06:57.237Z,8.60
2018-10-07T13:07:57.402Z,8.90
2018-10-07T13:08:57.554Z,7.00